Seacliff, California
Current Conditions -  °F | °C
As of 7:25 AM on Thursday 18 Dec 2014 (Local Time) from KWVI Reporting Station
Overcast Overcast  
Wind Chill: 53°   Ceiling: 3300
Heat Index: 53°   Visibility: 10mi
Dew Point: 50°   Wind: 0mph
Humidity: 89%   Direction: NA
Pressure: 30.15"   Gusts: NA
Location:  37.0137°N, 121.877°W
Report Text: KWVI 181525Z AUTO 00000KT 10SM FEW017 BKN033 OVC045 12/10 A3015 RMK AO2 T01170100
Loading
Personal Weather Stations






























Interactive Weather Map New forecast layout! Learn more

10-Day Weather Forecast

Advertisements
Track Severe Weather on mobile